sensor_id;sensor_type;location;lat;lon;timestamp;P1;durP1;ratioP1;P2;durP2;ratioP2
50124;SDS011;36023;48.670;6.184;2023-01-28T00:00:48;0.60;;;0.20;;
50124;SDS011;36023;48.670;6.184;2023-01-28T00:03:13;0.30;;;0.20;;
50124;SDS011;36023;48.670;6.184;2023-01-28T00:05:40;0.40;;;0.15;;
50124;SDS011;36023;48.670;6.184;2023-01-28T00:08:06;1.30;;;0.20;;
50124;SDS011;36023;48.670;6.184;2023-01-28T00:10:32;0.22;;;0.20;;
50124;SDS011;36023;48.670;6.184;2023-01-28T00:12:58;0.70;;;0.15;;
50124;SDS011;36023;48.670;6.184;2023-01-28T00:15:24;1.00;;;0.30;;
50124;SDS011;36023;48.670;6.184;2023-01-28T00:17:50;0.47;;;0.30;;
50124;SDS011;36023;48.670;6.184;2023-01-28T00:20:16;0.50;;;0.30;;
50124;SDS011;36023;48.670;6.184;2023-01-28T00:22:46;0.82;;;0.30;;
50124;SDS011;36023;48.670;6.184;2023-01-28T00:25:13;0.63;;;0.10;;
50124;SDS011;36023;48.670;6.184;2023-01-28T00:27:39;0.45;;;0.30;;
50124;SDS011;36023;48.670;6.184;2023-01-28T00:30:05;0.43;;;0.25;;
50124;SDS011;36023;48.670;6.184;2023-01-28T00:32:35;0.63;;;0.20;;
50124;SDS011;36023;48.670;6.184;2023-01-28T00:35:00;0.85;;;0.40;;
50124;SDS011;36023;48.670;6.184;2023-01-28T00:37:26;0.57;;;0.28;;
50124;SDS011;36023;48.670;6.184;2023-01-28T00:39:52;0.30;;;0.20;;
50124;SDS011;36023;48.670;6.184;2023-01-28T00:42:18;0.13;;;0.10;;
50124;SDS011;36023;48.670;6.184;2023-01-28T00:44:43;0.25;;;0.10;;
50124;SDS011;36023;48.670;6.184;2023-01-28T00:47:09;0.43;;;0.20;;
50124;SDS011;36023;48.670;6.184;2023-01-28T00:49:35;0.28;;;0.10;;
50124;SDS011;36023;48.670;6.184;2023-01-28T00:52:00;0.30;;;0.20;;
50124;SDS011;36023;48.670;6.184;2023-01-28T00:54:26;0.32;;;0.20;;
50124;SDS011;36023;48.670;6.184;2023-01-28T00:56:52;0.45;;;0.30;;
50124;SDS011;36023;48.670;6.184;2023-01-28T00:59:18;0.17;;;0.10;;
50124;SDS011;36023;48.670;6.184;2023-01-28T01:01:44;0.47;;;0.20;;
50124;SDS011;36023;48.670;6.184;2023-01-28T01:04:09;0.30;;;0.28;;
50124;SDS011;36023;48.670;6.184;2023-01-28T01:06:36;0.47;;;0.38;;
50124;SDS011;36023;48.670;6.184;2023-01-28T01:09:03;0.22;;;0.13;;
50124;SDS011;36023;48.670;6.184;2023-01-28T01:11:31;0.45;;;0.30;;
50124;SDS011;36023;48.670;6.184;2023-01-28T01:13:57;0.57;;;0.17;;
50124;SDS011;36023;48.670;6.184;2023-01-28T01:16:25;0.22;;;0.10;;
50124;SDS011;36023;48.670;6.184;2023-01-28T01:18:53;0.63;;;0.17;;
50124;SDS011;36023;48.670;6.184;2023-01-28T01:21:20;0.98;;;0.30;;
50124;SDS011;36023;48.670;6.184;2023-01-28T01:23:48;0.40;;;0.20;;
50124;SDS011;36023;48.670;6.184;2023-01-28T01:26:14;0.43;;;0.10;;
50124;SDS011;36023;48.670;6.184;2023-01-28T01:28:40;0.40;;;0.30;;
50124;SDS011;36023;48.670;6.184;2023-01-28T01:31:15;0.10;;;0.10;;
50124;SDS011;36023;48.670;6.184;2023-01-28T01:33:42;0.65;;;0.30;;
50124;SDS011;36023;48.670;6.184;2023-01-28T01:36:10;0.30;;;0.20;;
50124;SDS011;36023;48.670;6.184;2023-01-28T01:38:40;0.40;;;0.20;;
50124;SDS011;36023;48.670;6.184;2023-01-28T01:41:15;0.30;;;0.20;;
50124;SDS011;36023;48.670;6.184;2023-01-28T01:43:55;0.30;;;0.20;;
50124;SDS011;36023;48.670;6.184;2023-01-28T01:46:43;1.02;;;0.20;;
50124;SDS011;36023;48.670;6.184;2023-01-28T01:49:21;0.13;;;0.03;;
50124;SDS011;36023;48.670;6.184;2023-01-28T01:51:53;0.70;;;0.50;;
50124;SDS011;36023;48.670;6.184;2023-01-28T01:54:26;0.38;;;0.10;;
50124;SDS011;36023;48.670;6.184;2023-01-28T01:56:56;0.43;;;0.35;;
50124;SDS011;36023;48.670;6.184;2023-01-28T01:59:27;0.63;;;0.20;;
50124;SDS011;36023;48.670;6.184;2023-01-28T02:01:56;1.00;;;0.40;;
50124;SDS011;36023;48.670;6.184;2023-01-28T02:04:26;0.70;;;0.20;;
50124;SDS011;36023;48.670;6.184;2023-01-28T02:06:55;0.82;;;0.25;;
50124;SDS011;36023;48.670;6.184;2023-01-28T02:09:30;0.93;;;0.52;;
50124;SDS011;36023;48.670;6.184;2023-01-28T02:11:58;0.45;;;0.20;;
50124;SDS011;36023;48.670;6.184;2023-01-28T02:14:28;0.63;;;0.20;;
50124;SDS011;36023;48.670;6.184;2023-01-28T02:17:01;0.40;;;0.25;;
50124;SDS011;36023;48.670;6.184;2023-01-28T02:19:36;0.30;;;0.15;;
50124;SDS011;36023;48.670;6.184;2023-01-28T02:22:10;0.40;;;0.15;;
50124;SDS011;36023;48.670;6.184;2023-01-28T02:27:47;0.65;;;0.20;;
50124;SDS011;36023;48.670;6.184;2023-01-28T02:30:23;0.20;;;0.10;;
50124;SDS011;36023;48.670;6.184;2023-01-28T02:32:59;0.88;;;0.40;;
50124;SDS011;36023;48.670;6.184;2023-01-28T02:35:51;0.55;;;0.30;;
50124;SDS011;36023;48.670;6.184;2023-01-28T02:38:27;0.40;;;0.20;;
50124;SDS011;36023;48.670;6.184;2023-01-28T02:41:04;0.30;;;0.20;;
50124;SDS011;36023;48.670;6.184;2023-01-28T02:43:36;1.17;;;0.30;;
50124;SDS011;36023;48.670;6.184;2023-01-28T02:46:50;0.20;;;0.10;;
50124;SDS011;36023;48.670;6.184;2023-01-28T02:49:09;0.50;;;0.25;;
50124;SDS011;36023;48.670;6.184;2023-01-28T02:59:40;0.30;;;0.17;;
50124;SDS011;36023;48.670;6.184;2023-01-28T03:05:20;0.10;;;0.10;;
50124;SDS011;36023;48.670;6.184;2023-01-28T03:07:50;0.45;;;0.10;;
50124;SDS011;36023;48.670;6.184;2023-01-28T03:10:20;0.28;;;0.13;;
50124;SDS011;36023;48.670;6.184;2023-01-28T03:12:50;0.75;;;0.30;;
50124;SDS011;36023;48.670;6.184;2023-01-28T03:15:42;0.20;;;0.20;;
50124;SDS011;36023;48.670;6.184;2023-01-28T03:18:38;0.47;;;0.45;;
50124;SDS011;36023;48.670;6.184;2023-01-28T03:21:39;0.30;;;0.20;;
50124;SDS011;36023;48.670;6.184;2023-01-28T03:24:36;3.20;;;0.20;;
50124;SDS011;36023;48.670;6.184;2023-01-28T03:27:28;0.40;;;0.20;;
50124;SDS011;36023;48.670;6.184;2023-01-28T03:30:24;0.40;;;0.30;;
50124;SDS011;36023;48.670;6.184;2023-01-28T03:33:22;0.45;;;0.30;;
50124;SDS011;36023;48.670;6.184;2023-01-28T03:36:07;0.82;;;0.38;;
50124;SDS011;36023;48.670;6.184;2023-01-28T03:38:53;0.20;;;0.13;;
50124;SDS011;36023;48.670;6.184;2023-01-28T03:41:20;0.22;;;0.10;;
50124;SDS011;36023;48.670;6.184;2023-01-28T03:43:48;0.40;;;0.30;;
50124;SDS011;36023;48.670;6.184;2023-01-28T03:46:15;0.10;;;0.10;;
50124;SDS011;36023;48.670;6.184;2023-01-28T03:48:43;0.60;;;0.30;;
50124;SDS011;36023;48.670;6.184;2023-01-28T03:51:12;0.45;;;0.30;;
50124;SDS011;36023;48.670;6.184;2023-01-28T03:53:39;0.30;;;0.10;;
50124;SDS011;36023;48.670;6.184;2023-01-28T03:56:06;0.63;;;0.30;;
50124;SDS011;36023;48.670;6.184;2023-01-28T03:58:33;1.33;;;0.40;;
50124;SDS011;36023;48.670;6.184;2023-01-28T04:01:17;0.10;;;0.08;;
50124;SDS011;36023;48.670;6.184;2023-01-28T04:03:43;0.20;;;0.10;;
50124;SDS011;36023;48.670;6.184;2023-01-28T04:06:13;0.25;;;0.10;;
50124;SDS011;36023;48.670;6.184;2023-01-28T04:09:02;0.68;;;0.20;;
50124;SDS011;36023;48.670;6.184;2023-01-28T04:11:35;0.30;;;0.10;;
50124;SDS011;36023;48.670;6.184;2023-01-28T04:14:02;0.98;;;0.50;;
50124;SDS011;36023;48.670;6.184;2023-01-28T04:16:57;0.10;;;0.10;;
50124;SDS011;36023;48.670;6.184;2023-01-28T04:19:24;0.32;;;0.20;;
50124;SDS011;36023;48.670;6.184;2023-01-28T04:21:52;0.57;;;0.20;;
50124;SDS011;36023;48.670;6.184;2023-01-28T04:24:18;0.20;;;0.17;;
50124;SDS011;36023;48.670;6.184;2023-01-28T04:26:45;0.63;;;0.20;;
50124;SDS011;36023;48.670;6.184;2023-01-28T04:29:12;0.88;;;0.10;;
50124;SDS011;36023;48.670;6.184;2023-01-28T04:31:40;0.10;;;0.10;;
50124;SDS011;36023;48.670;6.184;2023-01-28T04:34:26;0.80;;;0.20;;
50124;SDS011;36023;48.670;6.184;2023-01-28T04:37:06;0.40;;;0.20;;
50124;SDS011;36023;48.670;6.184;2023-01-28T04:39:57;0.40;;;0.20;;
50124;SDS011;36023;48.670;6.184;2023-01-28T04:42:40;0.30;;;0.10;;
50124;SDS011;36023;48.670;6.184;2023-01-28T04:45:31;0.25;;;0.20;;
50124;SDS011;36023;48.670;6.184;2023-01-28T04:48:22;0.35;;;0.30;;
50124;SDS011;36023;48.670;6.184;2023-01-28T04:51:14;0.30;;;0.30;;
50124;SDS011;36023;48.670;6.184;2023-01-28T04:53:50;0.17;;;0.10;;
50124;SDS011;36023;48.670;6.184;2023-01-28T04:56:28;0.68;;;0.13;;
50124;SDS011;36023;48.670;6.184;2023-01-28T04:58:54;0.68;;;0.45;;
50124;SDS011;36023;48.670;6.184;2023-01-28T05:01:21;0.13;;;0.10;;
50124;SDS011;36023;48.670;6.184;2023-01-28T05:03:46;0.17;;;0.17;;
50124;SDS011;36023;48.670;6.184;2023-01-28T05:06:20;0.35;;;0.20;;
50124;SDS011;36023;48.670;6.184;2023-01-28T05:08:46;0.20;;;0.20;;
50124;SDS011;36023;48.670;6.184;2023-01-28T05:11:13;0.13;;;0.10;;
50124;SDS011;36023;48.670;6.184;2023-01-28T05:13:40;0.20;;;0.10;;
50124;SDS011;36023;48.670;6.184;2023-01-28T05:16:07;0.28;;;0.10;;
50124;SDS011;36023;48.670;6.184;2023-01-28T05:18:34;0.32;;;0.20;;
50124;SDS011;36023;48.670;6.184;2023-01-28T05:21:11;0.38;;;0.30;;
50124;SDS011;36023;48.670;6.184;2023-01-28T05:23:38;1.00;;;0.15;;
50124;SDS011;36023;48.670;6.184;2023-01-28T05:26:04;0.52;;;0.30;;
50124;SDS011;36023;48.670;6.184;2023-01-28T05:28:30;0.30;;;0.20;;
50124;SDS011;36023;48.670;6.184;2023-01-28T05:31:01;0.28;;;0.20;;
50124;SDS011;36023;48.670;6.184;2023-01-28T05:33:31;0.40;;;0.20;;
50124;SDS011;36023;48.670;6.184;2023-01-28T05:35:57;0.20;;;0.13;;
50124;SDS011;36023;48.670;6.184;2023-01-28T05:38:23;0.10;;;0.10;;
50124;SDS011;36023;48.670;6.184;2023-01-28T05:40:51;0.88;;;0.22;;
50124;SDS011;36023;48.670;6.184;2023-01-28T05:43:16;0.32;;;0.22;;
50124;SDS011;36023;48.670;6.184;2023-01-28T05:45:47;0.20;;;0.13;;
50124;SDS011;36023;48.670;6.184;2023-01-28T05:48:27;0.30;;;0.10;;
50124;SDS011;36023;48.670;6.184;2023-01-28T05:51:09;0.20;;;0.10;;
50124;SDS011;36023;48.670;6.184;2023-01-28T05:53:42;0.55;;;0.30;;
50124;SDS011;36023;48.670;6.184;2023-01-28T05:56:09;0.22;;;0.10;;
50124;SDS011;36023;48.670;6.184;2023-01-28T05:58:36;0.10;;;0.10;;
50124;SDS011;36023;48.670;6.184;2023-01-28T06:01:02;0.50;;;0.20;;
50124;SDS011;36023;48.670;6.184;2023-01-28T06:03:36;0.73;;;0.20;;
50124;SDS011;36023;48.670;6.184;2023-01-28T06:06:02;0.10;;;0.10;;
50124;SDS011;36023;48.670;6.184;2023-01-28T06:08:29;0.80;;;0.20;;
50124;SDS011;36023;48.670;6.184;2023-01-28T06:10:55;0.20;;;0.10;;
50124;SDS011;36023;48.670;6.184;2023-01-28T06:13:22;0.20;;;0.10;;
50124;SDS011;36023;48.670;6.184;2023-01-28T06:16:00;0.65;;;0.20;;
50124;SDS011;36023;48.670;6.184;2023-01-28T06:18:41;0.32;;;0.25;;
50124;SDS011;36023;48.670;6.184;2023-01-28T06:21:07;0.25;;;0.10;;
50124;SDS011;36023;48.670;6.184;2023-01-28T06:23:33;0.55;;;0.22;;
50124;SDS011;36023;48.670;6.184;2023-01-28T06:25:59;0.40;;;0.10;;
50124;SDS011;36023;48.670;6.184;2023-01-28T06:28:25;0.30;;;0.20;;
50124;SDS011;36023;48.670;6.184;2023-01-28T06:30:51;0.40;;;0.20;;
50124;SDS011;36023;48.670;6.184;2023-01-28T06:33:17;0.20;;;0.15;;
50124;SDS011;36023;48.670;6.184;2023-01-28T06:35:44;0.25;;;0.20;;
50124;SDS011;36023;48.670;6.184;2023-01-28T06:38:11;0.52;;;0.08;;
50124;SDS011;36023;48.670;6.184;2023-01-28T06:40:37;0.28;;;0.20;;
50124;SDS011;36023;48.670;6.184;2023-01-28T06:43:03;0.10;;;0.10;;
50124;SDS011;36023;48.670;6.184;2023-01-28T06:45:30;0.30;;;0.17;;
50124;SDS011;36023;48.670;6.184;2023-01-28T06:47:58;0.52;;;0.30;;
50124;SDS011;36023;48.670;6.184;2023-01-28T06:50:25;0.25;;;0.20;;
50124;SDS011;36023;48.670;6.184;2023-01-28T06:52:51;0.20;;;0.10;;
50124;SDS011;36023;48.670;6.184;2023-01-28T06:55:17;0.43;;;0.20;;
50124;SDS011;36023;48.670;6.184;2023-01-28T06:57:43;0.00;;;0.00;;
50124;SDS011;36023;48.670;6.184;2023-01-28T07:00:11;0.22;;;0.10;;
50124;SDS011;36023;48.670;6.184;2023-01-28T07:02:39;0.40;;;0.40;;
50124;SDS011;36023;48.670;6.184;2023-01-28T07:05:05;0.30;;;0.20;;
50124;SDS011;36023;48.670;6.184;2023-01-28T07:07:31;0.20;;;0.20;;
50124;SDS011;36023;48.670;6.184;2023-01-28T07:09:58;0.57;;;0.30;;
50124;SDS011;36023;48.670;6.184;2023-01-28T07:12:23;0.15;;;0.05;;
50124;SDS011;36023;48.670;6.184;2023-01-28T07:14:49;0.15;;;0.10;;
50124;SDS011;36023;48.670;6.184;2023-01-28T07:17:15;0.60;;;0.22;;
50124;SDS011;36023;48.670;6.184;2023-01-28T07:19:40;0.60;;;0.28;;
50124;SDS011;36023;48.670;6.184;2023-01-28T07:22:06;0.35;;;0.10;;
50124;SDS011;36023;48.670;6.184;2023-01-28T07:24:32;0.40;;;0.08;;
50124;SDS011;36023;48.670;6.184;2023-01-28T07:26:58;0.25;;;0.10;;
50124;SDS011;36023;48.670;6.184;2023-01-28T07:29:25;0.35;;;0.15;;
50124;SDS011;36023;48.670;6.184;2023-01-28T07:31:51;0.38;;;0.15;;
50124;SDS011;36023;48.670;6.184;2023-01-28T07:34:16;0.65;;;0.13;;
50124;SDS011;36023;48.670;6.184;2023-01-28T07:36:42;0.25;;;0.10;;
50124;SDS011;36023;48.670;6.184;2023-01-28T07:39:08;0.10;;;0.10;;
50124;SDS011;36023;48.670;6.184;2023-01-28T07:41:35;0.13;;;0.10;;
50124;SDS011;36023;48.670;6.184;2023-01-28T07:44:05;0.75;;;0.25;;
50124;SDS011;36023;48.670;6.184;2023-01-28T07:46:31;0.98;;;0.28;;
50124;SDS011;36023;48.670;6.184;2023-01-28T07:48:57;0.20;;;0.15;;
50124;SDS011;36023;48.670;6.184;2023-01-28T07:51:24;0.17;;;0.05;;
50124;SDS011;36023;48.670;6.184;2023-01-28T07:53:50;0.45;;;0.20;;
50124;SDS011;36023;48.670;6.184;2023-01-28T07:57:36;0.43;;;0.10;;
50124;SDS011;36023;48.670;6.184;2023-01-28T08:03:28;0.13;;;0.10;;
50124;SDS011;36023;48.670;6.184;2023-01-28T08:05:55;0.22;;;0.10;;
50124;SDS011;36023;48.670;6.184;2023-01-28T08:08:21;0.50;;;0.20;;
50124;SDS011;36023;48.670;6.184;2023-01-28T08:10:48;0.40;;;0.30;;
50124;SDS011;36023;48.670;6.184;2023-01-28T08:13:14;0.30;;;0.10;;
50124;SDS011;36023;48.670;6.184;2023-01-28T08:15:41;0.40;;;0.40;;
50124;SDS011;36023;48.670;6.184;2023-01-28T08:18:08;0.60;;;0.30;;
50124;SDS011;36023;48.670;6.184;2023-01-28T08:20:37;0.47;;;0.17;;
50124;SDS011;36023;48.670;6.184;2023-01-28T08:25:35;2.78;;;0.20;;
50124;SDS011;36023;48.670;6.184;2023-01-28T08:28:01;0.35;;;0.13;;
50124;SDS011;36023;48.670;6.184;2023-01-28T08:30:30;0.60;;;0.40;;
50124;SDS011;36023;48.670;6.184;2023-01-28T08:32:57;0.22;;;0.22;;
50124;SDS011;36023;48.670;6.184;2023-01-28T08:35:24;0.30;;;0.20;;
50124;SDS011;36023;48.670;6.184;2023-01-28T08:37:50;0.30;;;0.20;;
50124;SDS011;36023;48.670;6.184;2023-01-28T08:40:17;0.10;;;0.10;;
50124;SDS011;36023;48.670;6.184;2023-01-28T08:42:50;0.43;;;0.20;;
50124;SDS011;36023;48.670;6.184;2023-01-28T08:45:18;0.77;;;0.38;;
50124;SDS011;36023;48.670;6.184;2023-01-28T08:47:47;0.10;;;0.00;;
50124;SDS011;36023;48.670;6.184;2023-01-28T08:50:17;0.28;;;0.10;;
50124;SDS011;36023;48.670;6.184;2023-01-28T08:52:44;0.28;;;0.22;;
50124;SDS011;36023;48.670;6.184;2023-01-28T08:55:10;0.22;;;0.10;;
50124;SDS011;36023;48.670;6.184;2023-01-28T08:57:36;0.75;;;0.30;;
50124;SDS011;36023;48.670;6.184;2023-01-28T09:00:03;0.00;;;0.00;;
50124;SDS011;36023;48.670;6.184;2023-01-28T09:02:30;0.55;;;0.25;;
50124;SDS011;36023;48.670;6.184;2023-01-28T09:04:55;0.50;;;0.13;;
50124;SDS011;36023;48.670;6.184;2023-01-28T09:07:21;0.40;;;0.13;;
50124;SDS011;36023;48.670;6.184;2023-01-28T09:09:47;0.30;;;0.10;;
50124;SDS011;36023;48.670;6.184;2023-01-28T09:12:13;1.20;;;0.47;;
50124;SDS011;36023;48.670;6.184;2023-01-28T09:14:39;0.30;;;0.25;;
50124;SDS011;36023;48.670;6.184;2023-01-28T09:17:04;0.10;;;0.00;;
50124;SDS011;36023;48.670;6.184;2023-01-28T09:19:30;0.70;;;0.28;;
50124;SDS011;36023;48.670;6.184;2023-01-28T09:21:56;2.40;;;0.77;;
50124;SDS011;36023;48.670;6.184;2023-01-28T09:24:21;0.65;;;0.25;;
50124;SDS011;36023;48.670;6.184;2023-01-28T09:26:47;4.20;;;0.40;;
50124;SDS011;36023;48.670;6.184;2023-01-28T09:29:13;2.17;;;0.43;;
50124;SDS011;36023;48.670;6.184;2023-01-28T09:31:40;2.47;;;0.52;;
50124;SDS011;36023;48.670;6.184;2023-01-28T09:34:08;1.20;;;0.20;;
50124;SDS011;36023;48.670;6.184;2023-01-28T09:36:34;1.13;;;0.40;;
50124;SDS011;36023;48.670;6.184;2023-01-28T09:39:00;0.52;;;0.20;;
50124;SDS011;36023;48.670;6.184;2023-01-28T09:44:16;1.65;;;0.60;;
50124;SDS011;36023;48.670;6.184;2023-01-28T09:46:53;0.28;;;0.20;;
50124;SDS011;36023;48.670;6.184;2023-01-28T09:49:36;0.38;;;0.17;;
50124;SDS011;36023;48.670;6.184;2023-01-28T09:52:09;0.47;;;0.43;;
50124;SDS011;36023;48.670;6.184;2023-01-28T09:54:50;0.38;;;0.10;;
50124;SDS011;36023;48.670;6.184;2023-01-28T09:57:24;0.50;;;0.30;;
50124;SDS011;36023;48.670;6.184;2023-01-28T09:59:51;0.75;;;0.10;;
50124;SDS011;36023;48.670;6.184;2023-01-28T10:02:31;1.50;;;0.50;;
50124;SDS011;36023;48.670;6.184;2023-01-28T10:08:09;0.38;;;0.10;;
50124;SDS011;36023;48.670;6.184;2023-01-28T10:10:54;0.80;;;0.32;;
50124;SDS011;36023;48.670;6.184;2023-01-28T10:13:44;0.40;;;0.20;;
50124;SDS011;36023;48.670;6.184;2023-01-28T10:16:23;2.15;;;0.15;;
50124;SDS011;36023;48.670;6.184;2023-01-28T10:19:04;0.85;;;0.30;;
50124;SDS011;36023;48.670;6.184;2023-01-28T10:24:30;0.60;;;0.22;;
50124;SDS011;36023;48.670;6.184;2023-01-28T10:27:08;0.47;;;0.28;;
50124;SDS011;36023;48.670;6.184;2023-01-28T10:29:40;0.28;;;0.20;;
50124;SDS011;36023;48.670;6.184;2023-01-28T10:34:58;0.85;;;0.13;;
50124;SDS011;36023;48.670;6.184;2023-01-28T10:37:26;0.35;;;0.00;;
50124;SDS011;36023;48.670;6.184;2023-01-28T10:39:53;0.22;;;0.10;;
50124;SDS011;36023;48.670;6.184;2023-01-28T10:45:00;0.40;;;0.20;;
50124;SDS011;36023;48.670;6.184;2023-01-28T10:47:32;0.10;;;0.10;;
50124;SDS011;36023;48.670;6.184;2023-01-28T10:50:05;2.40;;;0.22;;
50124;SDS011;36023;48.670;6.184;2023-01-28T10:52:49;0.93;;;0.28;;
50124;SDS011;36023;48.670;6.184;2023-01-28T10:55:26;0.28;;;0.28;;
50124;SDS011;36023;48.670;6.184;2023-01-28T10:58:22;0.90;;;0.25;;
50124;SDS011;36023;48.670;6.184;2023-01-28T11:00:56;0.10;;;0.00;;
50124;SDS011;36023;48.670;6.184;2023-01-28T11:03:25;0.93;;;0.30;;
50124;SDS011;36023;48.670;6.184;2023-01-28T11:05:55;0.52;;;0.30;;
50124;SDS011;36023;48.670;6.184;2023-01-28T11:08:23;0.35;;;0.10;;
50124;SDS011;36023;48.670;6.184;2023-01-28T11:10:50;0.80;;;0.43;;
50124;SDS011;36023;48.670;6.184;2023-01-28T11:13:25;0.65;;;0.17;;
50124;SDS011;36023;48.670;6.184;2023-01-28T11:18:32;0.20;;;0.17;;
50124;SDS011;36023;48.670;6.184;2023-01-28T11:21:03;0.30;;;0.10;;
50124;SDS011;36023;48.670;6.184;2023-01-28T11:26:26;0.52;;;0.10;;
50124;SDS011;36023;48.670;6.184;2023-01-28T11:28:57;0.13;;;0.10;;
50124;SDS011;36023;48.670;6.184;2023-01-28T11:31:25;1.20;;;0.20;;
50124;SDS011;36023;48.670;6.184;2023-01-28T11:33:55;0.08;;;0.00;;
50124;SDS011;36023;48.670;6.184;2023-01-28T11:38:52;1.30;;;0.10;;
50124;SDS011;36023;48.670;6.184;2023-01-28T11:41:32;0.10;;;0.05;;
50124;SDS011;36023;48.670;6.184;2023-01-28T11:44:18;0.80;;;0.10;;
50124;SDS011;36023;48.670;6.184;2023-01-28T11:54:52;0.95;;;0.28;;
50124;SDS011;36023;48.670;6.184;2023-01-28T12:00:33;0.57;;;0.28;;
50124;SDS011;36023;48.670;6.184;2023-01-28T12:05:52;0.75;;;0.40;;
50124;SDS011;36023;48.670;6.184;2023-01-28T12:19:02;2.50;;;1.30;;
50124;SDS011;36023;48.670;6.184;2023-01-28T12:21:45;3.42;;;1.50;;
50124;SDS011;36023;48.670;6.184;2023-01-28T12:35:21;17.17;;;9.95;;
50124;SDS011;36023;48.670;6.184;2023-01-28T12:38:15;24.88;;;14.07;;
50124;SDS011;36023;48.670;6.184;2023-01-28T12:40:54;18.52;;;11.57;;
50124;SDS011;36023;48.670;6.184;2023-01-28T12:46:08;14.43;;;10.73;;
50124;SDS011;36023;48.670;6.184;2023-01-28T12:48:47;15.27;;;8.95;;
50124;SDS011;36023;48.670;6.184;2023-01-28T12:51:26;16.45;;;8.23;;
50124;SDS011;36023;48.670;6.184;2023-01-28T12:54:00;15.32;;;6.55;;
50124;SDS011;36023;48.670;6.184;2023-01-28T12:56:37;7.78;;;6.38;;
50124;SDS011;36023;48.670;6.184;2023-01-28T13:01:42;8.90;;;4.80;;
50124;SDS011;36023;48.670;6.184;2023-01-28T13:04:23;8.73;;;3.95;;
50124;SDS011;36023;48.670;6.184;2023-01-28T13:07:03;5.05;;;3.47;;
50124;SDS011;36023;48.670;6.184;2023-01-28T13:09:52;4.57;;;3.28;;
50124;SDS011;36023;48.670;6.184;2023-01-28T13:12:25;5.55;;;3.13;;
50124;SDS011;36023;48.670;6.184;2023-01-28T13:14:51;6.55;;;3.15;;
50124;SDS011;36023;48.670;6.184;2023-01-28T13:17:30;2.97;;;2.67;;
50124;SDS011;36023;48.670;6.184;2023-01-28T13:19:58;6.72;;;2.90;;
50124;SDS011;36023;48.670;6.184;2023-01-28T13:22:34;5.97;;;1.88;;
50124;SDS011;36023;48.670;6.184;2023-01-28T13:27:56;2.92;;;1.75;;
50124;SDS011;36023;48.670;6.184;2023-01-28T13:30:34;2.20;;;1.77;;
50124;SDS011;36023;48.670;6.184;2023-01-28T13:33:30;1.75;;;1.33;;
50124;SDS011;36023;48.670;6.184;2023-01-28T13:35:58;2.05;;;1.00;;
50124;SDS011;36023;48.670;6.184;2023-01-28T13:38:47;1.63;;;1.30;;
50124;SDS011;36023;48.670;6.184;2023-01-28T13:41:39;4.40;;;2.20;;
50124;SDS011;36023;48.670;6.184;2023-01-28T13:44:16;1.80;;;1.00;;
50124;SDS011;36023;48.670;6.184;2023-01-28T13:47:00;6.65;;;1.17;;
50124;SDS011;36023;48.670;6.184;2023-01-28T13:49:46;1.27;;;0.98;;
50124;SDS011;36023;48.670;6.184;2023-01-28T14:19:07;0.70;;;0.60;;
50124;SDS011;36023;48.670;6.184;2023-01-28T14:21:36;2.05;;;0.70;;
50124;SDS011;36023;48.670;6.184;2023-01-28T14:24:02;2.05;;;0.50;;
50124;SDS011;36023;48.670;6.184;2023-01-28T14:29:25;1.35;;;0.80;;
50124;SDS011;36023;48.670;6.184;2023-01-28T14:31:53;1.17;;;0.60;;
50124;SDS011;36023;48.670;6.184;2023-01-28T14:36:51;0.82;;;0.75;;
50124;SDS011;36023;48.670;6.184;2023-01-28T14:39:22;2.67;;;0.60;;
50124;SDS011;36023;48.670;6.184;2023-01-28T14:41:51;1.58;;;0.45;;
50124;SDS011;36023;48.670;6.184;2023-01-28T14:46:56;1.27;;;0.77;;
50124;SDS011;36023;48.670;6.184;2023-01-28T14:49:31;1.75;;;0.63;;
50124;SDS011;36023;48.670;6.184;2023-01-28T14:54:55;0.93;;;0.50;;
50124;SDS011;36023;48.670;6.184;2023-01-28T14:57:43;0.50;;;0.40;;
50124;SDS011;36023;48.670;6.184;2023-01-28T15:02:46;0.65;;;0.40;;
50124;SDS011;36023;48.670;6.184;2023-01-28T15:05:16;1.38;;;0.70;;
50124;SDS011;36023;48.670;6.184;2023-01-28T15:07:46;0.65;;;0.50;;
50124;SDS011;36023;48.670;6.184;2023-01-28T15:15:33;1.40;;;0.40;;
50124;SDS011;36023;48.670;6.184;2023-01-28T15:18:03;0.63;;;0.40;;
50124;SDS011;36023;48.670;6.184;2023-01-28T15:20:51;0.50;;;0.30;;
50124;SDS011;36023;48.670;6.184;2023-01-28T15:23:38;0.35;;;0.17;;
50124;SDS011;36023;48.670;6.184;2023-01-28T15:26:08;2.42;;;0.68;;
50124;SDS011;36023;48.670;6.184;2023-01-28T15:28:41;0.65;;;0.30;;
50124;SDS011;36023;48.670;6.184;2023-01-28T15:36:21;3.00;;;0.45;;
50124;SDS011;36023;48.670;6.184;2023-01-28T15:38:47;0.25;;;0.20;;
50124;SDS011;36023;48.670;6.184;2023-01-28T15:41:13;0.65;;;0.65;;
50124;SDS011;36023;48.670;6.184;2023-01-28T15:43:45;0.28;;;0.20;;
50124;SDS011;36023;48.670;6.184;2023-01-28T15:46:13;0.80;;;0.35;;
50124;SDS011;36023;48.670;6.184;2023-01-28T15:48:47;6.82;;;0.50;;
50124;SDS011;36023;48.670;6.184;2023-01-28T15:51:24;0.38;;;0.20;;
50124;SDS011;36023;48.670;6.184;2023-01-28T15:54:04;0.30;;;0.20;;
50124;SDS011;36023;48.670;6.184;2023-01-28T15:56:32;0.40;;;0.20;;
50124;SDS011;36023;48.670;6.184;2023-01-28T16:01:41;0.68;;;0.30;;
50124;SDS011;36023;48.670;6.184;2023-01-28T16:04:20;0.30;;;0.20;;
50124;SDS011;36023;48.670;6.184;2023-01-28T16:06:50;1.50;;;0.30;;
50124;SDS011;36023;48.670;6.184;2023-01-28T16:09:20;0.20;;;0.20;;
50124;SDS011;36023;48.670;6.184;2023-01-28T16:11:49;1.75;;;0.20;;
50124;SDS011;36023;48.670;6.184;2023-01-28T16:14:18;1.00;;;0.55;;
50124;SDS011;36023;48.670;6.184;2023-01-28T16:16:52;0.93;;;0.63;;
50124;SDS011;36023;48.670;6.184;2023-01-28T16:22:02;0.75;;;0.22;;
50124;SDS011;36023;48.670;6.184;2023-01-28T16:24:29;0.57;;;0.50;;
50124;SDS011;36023;48.670;6.184;2023-01-28T16:26:57;0.17;;;0.15;;
50124;SDS011;36023;48.670;6.184;2023-01-28T16:29:26;0.50;;;0.10;;
50124;SDS011;36023;48.670;6.184;2023-01-28T16:31:53;0.32;;;0.30;;
50124;SDS011;36023;48.670;6.184;2023-01-28T16:34:18;0.28;;;0.28;;
50124;SDS011;36023;48.670;6.184;2023-01-28T16:36:44;0.90;;;0.43;;
50124;SDS011;36023;48.670;6.184;2023-01-28T16:39:10;0.20;;;0.10;;
50124;SDS011;36023;48.670;6.184;2023-01-28T16:41:41;0.65;;;0.52;;
50124;SDS011;36023;48.670;6.184;2023-01-28T16:44:14;0.65;;;0.25;;
50124;SDS011;36023;48.670;6.184;2023-01-28T16:46:41;0.55;;;0.15;;
50124;SDS011;36023;48.670;6.184;2023-01-28T16:49:09;0.77;;;0.30;;
50124;SDS011;36023;48.670;6.184;2023-01-28T16:51:36;0.25;;;0.10;;
50124;SDS011;36023;48.670;6.184;2023-01-28T16:54:05;1.67;;;0.55;;
50124;SDS011;36023;48.670;6.184;2023-01-28T16:56:31;1.48;;;0.35;;
50124;SDS011;36023;48.670;6.184;2023-01-28T16:58:58;0.20;;;0.10;;
50124;SDS011;36023;48.670;6.184;2023-01-28T17:01:23;2.72;;;0.38;;
50124;SDS011;36023;48.670;6.184;2023-01-28T17:03:49;0.60;;;0.20;;
50124;SDS011;36023;48.670;6.184;2023-01-28T17:06:21;0.35;;;0.20;;
50124;SDS011;36023;48.670;6.184;2023-01-28T17:08:51;1.33;;;0.65;;
50124;SDS011;36023;48.670;6.184;2023-01-28T17:11:17;0.52;;;0.15;;
50124;SDS011;36023;48.670;6.184;2023-01-28T17:13:43;0.93;;;0.45;;
50124;SDS011;36023;48.670;6.184;2023-01-28T17:16:08;0.60;;;0.28;;
50124;SDS011;36023;48.670;6.184;2023-01-28T17:18:34;0.68;;;0.45;;
50124;SDS011;36023;48.670;6.184;2023-01-28T17:21:03;1.40;;;0.65;;
50124;SDS011;36023;48.670;6.184;2023-01-28T17:23:31;0.88;;;0.40;;
50124;SDS011;36023;48.670;6.184;2023-01-28T17:26:02;1.77;;;0.90;;
50124;SDS011;36023;48.670;6.184;2023-01-28T17:28:28;0.70;;;0.40;;
50124;SDS011;36023;48.670;6.184;2023-01-28T17:30:55;0.77;;;0.55;;
50124;SDS011;36023;48.670;6.184;2023-01-28T17:33:21;1.67;;;0.77;;
50124;SDS011;36023;48.670;6.184;2023-01-28T17:35:47;1.52;;;0.57;;